Tuesday, October 16, 2018, 6:00 AM EDT
Back to Local

KPTW, Pottstown Limerick Airport

Location: Royersford, PA, United States Lat: 40.233
Local Time: 6:00 AM EDT (10:00 GMT) Lon: -75.55
Time Zone: US/Eastern Elev: 291 ft

Show me the last for .
Show Decoded

2018-10-16 04:54 METAR KPTW 160854Z AUTO 31008KT 10SM CLR 11/04 A3012 RMK AO2 SLP198 T01060044
                 53018 =
2018-10-16 03:54 METAR KPTW 160754Z AUTO 30008KT 10SM CLR 11/04 A3010 RMK AO2 SLP189 T01110044 =
2018-10-16 02:54 METAR KPTW 160654Z AUTO 31007G17KT 10SM CLR 12/04 A3008 RMK AO2 PK WND
                 32026/0611 SLP183 T01170044 =
2018-10-16 01:54 METAR KPTW 160554Z AUTO 30008G16KT 10SM FEW090 13/08 A3007 RMK AO2 SLP180 60002
                 T01330083 10194 20133 53034 =
2018-10-16 00:54 METAR KPTW 160454Z AUTO 29005KT 10SM BKN065 OVC080 14/11 A3003 RMK AO2 RAE36
                 SLP167 P0000 T01390111 401940106 =
2018-10-15 23:54 METAR KPTW 160354Z AUTO 29008G14KT 240V310 9SM -RA FEW021 SCT041 OVC048 15/13
                 A3000 RMK AO2 SLP157 P0001 T01500133 =
2018-10-15 23:12 METAR KPTW 160312Z AUTO 30008G14KT 10SM -RA OVC032 16/14 A2998 RMK AO2 P0000
                 T01610144 =
2018-10-15 22:54 METAR KPTW 160254Z AUTO 30009G21KT 10SM -RA SCT025 OVC029 17/14 A2997 RMK AO2
                 RAB29 SLP146 P0001 60001 T01670144 53016 =
2018-10-15 22:07 METAR KPTW 160207Z AUTO 29007KT 9SM BKN017 BKN044 OVC055 19/17 A2995 RMK AO2
                 T01940172 =
2018-10-15 21:54 METAR KPTW 160154Z AUTO 25008G18KT 9SM FEW017 SCT045 OVC060 19/17 A2994 RMK AO2
                 SLP135 T01940172 =
2018-10-15 20:54 METAR KPTW 160054Z AUTO VRB06KT 9SM BKN065 19/17 A2992 RMK AO2 SLP130 T01890172
                 =
2018-10-15 19:54 METAR KPTW 152354Z AUTO 23006KT 9SM SCT070 18/17 A2992 RMK AO2 SLP129 60001
                 T01830167 10183 20167 58004 =
2018-10-15 19:07 METAR KPTW 152307Z AUTO VRB03KT 9SM SCT017 BKN060 OVC110 18/17 A2993 RMK AO2
                 T01780172 =
2018-10-15 18:54 METAR KPTW 152254Z AUTO 23003KT 8SM BKN015 OVC080 18/17 A2994 RMK AO2 RAB08E38
                 SLP135 P0000 T01780172 =
2018-10-15 18:49 METAR KPTW 152249Z AUTO 22004KT 8SM OVC015 18/17 A2994 RMK AO2 RAB08E38 P0000 =
2018-10-15 17:54 METAR KPTW 152154Z AUTO 00000KT 7SM OVC012 18/17 A2993 RMK AO2 RAB2056E13 SLP133
                 P0000 T01780172 =
2018-10-15 16:54 METAR KPTW 152054Z AUTO VRB05KT 6SM BR BKN014 BKN045 OVC100 17/17 A2995 RMK AO2
                 SLP141 60001 T01720167 55013 =
2018-10-15 15:54 METAR KPTW 151954Z AUTO 17005KT 6SM BR FEW075 SCT085 OVC110 17/16 A2997 RMK AO2
                 RAE50 SLP145 P0001 T01720161 =
2018-10-15 14:54 METAR KPTW 151854Z AUTO 21006KT 7SM -RA FEW014 SCT065 OVC100 17/16 A2999 RMK AO2
                 RAB38 SLP154 P0000 T01720161 =
2018-10-15 14:30 METAR KPTW 151830Z AUTO 21006KT 7SM SCT012 17/16 A3000 RMK AO2 T01720161 =
2018-10-15 13:54 METAR KPTW 151754Z AUTO 20007KT 7SM OVC011 17/16 A3000 RMK AO2 SLP157 60002
                 T01670161 10167 20122 56029 $ =
2018-10-15 12:54 METAR KPTW 151654Z AUTO 19006KT 8SM OVC010 17/16 A3003 RMK AO2 CIG 009V014
                 SLP165 T01670161 $ =
2018-10-15 11:54 METAR KPTW 151554Z AUTO VRB04KT 9SM OVC008 16/16 A3005 RMK AO2 SLP174 T01610156
                 $ =
2018-10-15 11:45 METAR KPTW 151545Z AUTO 20004KT 8SM OVC008 16/16 A3006 RMK AO2 CIG 006V011
                 T01560156 $ =
2018-10-15 11:20 METAR KPTW 151520Z AUTO 19004KT 8SM OVC010 16/16 A3007 RMK AO2 CIG 008V012
                 T01560156 $ =
2018-10-15 10:54 METAR KPTW 151454Z AUTO 20004KT 8SM OVC009 14/14 A3009 RMK AO2 RAB08E26 SLP188
                 P0000 60002 T01440144 58007 $ =
2018-10-15 09:54 METAR KPTW 151354Z AUTO 19005KT 7SM OVC009 14/14 A3010 RMK AO2 RAE45 CIG 006V013
                 SLP191 P0001 T01390139 $ =
2018-10-15 09:44 METAR KPTW 151344Z AUTO 19004KT 7SM -RA OVC009 14/14 A3010 RMK AO2 CIG 006V012
                 P0001 T01390139 $ =
2018-10-15 09:05 METAR KPTW 151305Z AUTO VRB03KT 5SM -RA BR BKN012 OVC017 13/13 A3011 RMK AO2
                 P0000 T01330133 $ =
2018-10-15 08:54 METAR KPTW 151254Z AUTO 00000KT 4SM -RA BR OVC015 13/13 A3011 RMK AO2 RAB25
                 SLP196 P0001 T01330133 $ =
2018-10-15 08:44 METAR KPTW 151244Z AUTO 00000KT 3SM -RA BR OVC015 13/13 A3011 RMK AO2 RAB25
                 P0000 T01330133 $ =
2018-10-15 08:37 METAR KPTW 151237Z AUTO 00000KT 2 1/2SM -RA BR OVC016 13/13 A3012 RMK AO2 RAB25
                 P0000 T01330133 $ =
2018-10-15 07:54 METAR KPTW 151154Z AUTO 00000KT 3SM BR OVC016 12/12 A3011 RMK AO2 RAB1056E37
                 SLP195 P0001 60004 70004 T01220122 10122 20106 58013 $ =
2018-10-15 06:54 METAR KPTW 151054Z AUTO 00000KT 4SM BR BKN029 OVC034 12/12 A3013 RMK AO2 SLP200
                 T01170117 $ =
2018-10-15 06:24 METAR KPTW 151024Z AUTO 00000KT 5SM BR SCT006 OVC033 12/12 A3013 RMK AO2
                 T01170117 $ =

Support USWX by starting your Amazon purchase here.